Time;durP1;ratioP1;P1;durP2;ratioP2;P2;SDS_P1;SDS_P2;PMS_P1;PMS_P2;Temp;Humidity;BMP_temperature;BMP_pressure;BME280_temperature;BME280_humidity;BME280_pressure;Samples;Min_cycle;Max_cycle;Signal;HPM_P1;HPM_P2
2021/09/12 00:01:45;;;;;;;3.58;2.20;;;18.10;80.00;;;;;;5000472;28;20037;-69
2021/09/12 00:04:11;;;;;;;2.00;1.90;;;18.00;79.80;;;;;;5001141;28;20456;-70
2021/09/12 00:06:37;;;;;;;2.20;1.98;;;18.00;79.60;;;;;;5001189;28;20053;-70
2021/09/12 00:09:02;;;;;;;2.55;2.35;;;18.10;79.50;;;;;;4998618;28;20080;-69
2021/09/12 00:11:28;;;;;;;4.55;2.25;;;18.10;79.40;;;;;;5001516;28;20034;-70
2021/09/12 00:13:54;;;;;;;3.20;2.78;;;18.00;79.10;;;;;;5000938;28;20035;-70
2021/09/12 00:16:19;;;;;;;3.83;2.45;;;18.00;79.10;;;;;;5000677;28;20450;-71
2021/09/12 00:18:46;;;;;;;2.55;2.33;;;18.00;79.00;;;;;;5000097;28;20037;-70
2021/09/12 00:21:12;;;;;;;2.78;2.58;;;18.00;79.10;;;;;;5002120;28;20031;-69
2021/09/12 00:23:37;;;;;;;2.80;2.60;;;17.90;79.30;;;;;;5000000;28;20030;-70
2021/09/12 00:26:03;;;;;;;3.15;2.67;;;17.90;79.50;;;;;;5000822;28;20041;-70
2021/09/12 00:28:28;;;;;;;3.08;2.88;;;17.80;79.70;;;;;;5000958;28;20025;-70
2021/09/12 00:30:54;;;;;;;3.30;3.00;;;17.80;80.10;;;;;;5001722;28;20493;-71
2021/09/12 00:33:20;;;;;;;3.28;3.08;;;17.80;80.30;;;;;;5000895;28;20600;-70
2021/09/12 00:35:45;;;;;;;3.13;2.83;;;17.80;80.40;;;;;;5001062;28;20470;-70
2021/09/12 00:38:13;;;;;;;3.30;3.00;;;17.80;80.50;;;;;;5005523;28;20065;-70
2021/09/12 00:40:39;;;;;;;3.03;2.83;;;17.80;80.60;;;;;;5001078;28;20083;-70
2021/09/12 00:43:04;;;;;;;3.53;3.17;;;17.80;80.60;;;;;;5002612;28;20400;-70
2021/09/12 00:45:30;;;;;;;3.47;3.17;;;17.80;80.80;;;;;;5000131;28;20504;-71
2021/09/12 00:47:56;;;;;;;10.82;3.40;;;17.80;80.90;;;;;;5000437;28;20822;-70
2021/09/12 00:50:22;;;;;;;3.15;2.95;;;17.80;81.20;;;;;;5001356;28;20048;-70
2021/09/12 00:52:50;;;;;;;3.22;2.70;;;17.80;81.20;;;;;;5001228;28;20038;-70
2021/09/12 00:55:17;;;;;;;4.05;3.30;;;17.80;81.30;;;;;;4999446;28;20294;-70
2021/09/12 00:57:44;;;;;;;3.65;3.30;;;17.80;81.50;;;;;;4997456;28;20608;-70
2021/09/12 01:00:11;;;;;;;3.50;2.97;;;17.80;81.70;;;;;;4998742;28;20410;-70
2021/09/12 01:02:38;;;;;;;3.58;3.28;;;17.80;81.70;;;;;;5002081;28;20041;-70
2021/09/12 01:05:06;;;;;;;4.20;3.80;;;17.80;82.70;;;;;;4999140;28;20113;-70
2021/09/12 01:07:32;;;;;;;5.25;4.45;;;17.80;81.90;;;;;;4999807;28;20117;-69
2021/09/12 01:09:57;;;;;;;4.97;4.15;;;17.80;81.90;;;;;;5000260;28;20026;-70
2021/09/12 01:12:23;;;;;;;4.97;4.47;;;17.80;81.70;;;;;;4994335;28;20533;-70
2021/09/12 01:14:49;;;;;;;4.68;4.28;;;17.80;81.70;;;;;;4999846;28;21045;-69
2021/09/12 01:17:15;;;;;;;4.65;4.25;;;17.80;81.70;;;;;;5000480;28;20060;-70
2021/09/12 01:19:40;;;;;;;5.63;4.63;;;17.70;81.50;;;;;;5000443;28;20383;-70
2021/09/12 01:22:07;;;;;;;5.45;4.65;;;17.70;81.60;;;;;;5000079;28;20413;-70
2021/09/12 01:24:33;;;;;;;4.90;4.40;;;17.70;81.50;;;;;;4999627;28;20042;-68
2021/09/12 01:27:00;;;;;;;5.30;4.82;;;17.60;81.50;;;;;;4998233;28;20045;-70
2021/09/12 01:29:26;;;;;;;4.65;4.22;;;17.60;81.60;;;;;;4999384;28;20409;-70
2021/09/12 01:31:51;;;;;;;5.50;4.43;;;17.60;81.50;;;;;;4997045;28;20045;-69
2021/09/12 01:34:17;;;;;;;5.10;4.55;;;17.50;81.50;;;;;;4998890;28;20034;-70
2021/09/12 01:36:43;;;;;;;4.97;4.47;;;17.50;81.50;;;;;;4999772;28;20052;-69
2021/09/12 01:39:10;;;;;;;4.78;4.32;;;17.50;81.30;;;;;;5005414;28;20465;-70
2021/09/12 01:41:36;;;;;;;5.30;4.07;;;17.50;81.20;;;;;;5001761;28;20086;-70
2021/09/12 01:44:04;;;;;;;4.75;4.30;;;17.50;81.20;;;;;;4998906;28;20102;-70
2021/09/12 01:46:30;;;;;;;5.30;4.07;;;17.50;81.10;;;;;;4998557;28;20042;-67
2021/09/12 01:49:00;;;;;;;5.95;3.95;;;17.50;81.70;;;;;;4999941;28;20046;-71
2021/09/12 01:51:25;;;;;;;4.60;4.20;;;17.40;80.80;;;;;;5001104;28;20042;-70
2021/09/12 01:53:51;;;;;;;5.65;4.47;;;17.40;80.80;;;;;;4999554;28;20417;-70
2021/09/12 01:56:17;;;;;;;4.50;4.10;;;17.40;80.80;;;;;;4999045;28;20069;-70
2021/09/12 01:58:44;;;;;;;4.60;4.20;;;17.40;80.80;;;;;;4998191;28;20118;-70
2021/09/12 02:01:10;;;;;;;4.63;4.07;;;17.30;80.60;;;;;;4996545;28;20041;-70
2021/09/12 02:03:36;;;;;;;5.03;3.95;;;17.30;80.50;;;;;;4998252;28;20146;-70
2021/09/12 02:06:02;;;;;;;5.13;4.63;;;17.30;80.40;;;;;;4999266;28;20042;-70
2021/09/12 02:08:28;;;;;;;4.40;4.00;;;17.30;80.30;;;;;;4998115;28;20037;-70
2021/09/12 02:10:53;;;;;;;5.32;3.90;;;17.30;80.10;;;;;;5003645;28;20049;-70
2021/09/12 02:13:19;;;;;;;4.25;3.85;;;17.30;79.90;;;;;;4998359;28;20045;-70
2021/09/12 02:15:45;;;;;;;4.00;3.60;;;17.20;79.70;;;;;;4999414;28;20034;-70
2021/09/12 02:18:11;;;;;;;4.40;4.00;;;17.20;79.60;;;;;;4996246;28;20575;-70
2021/09/12 02:20:38;;;;;;;4.63;4.22;;;17.20;79.60;;;;;;4999092;28;20046;-70
2021/09/12 02:23:04;;;;;;;4.57;3.55;;;17.10;79.60;;;;;;4998961;28;20587;-70
2021/09/12 02:25:30;;;;;;;4.10;3.72;;;17.10;79.60;;;;;;4997418;28;20037;-70
2021/09/12 02:27:55;;;;;;;4.22;3.83;;;17.00;79.60;;;;;;4999580;28;20053;-70
2021/09/12 02:30:21;;;;;;;4.60;4.07;;;17.00;79.60;;;;;;5000018;28;20088;-70
2021/09/12 02:32:46;;;;;;;4.65;3.88;;;17.00;79.60;;;;;;4995811;28;20042;-70
2021/09/12 02:35:12;;;;;;;4.28;3.80;;;17.00;79.60;;;;;;4999502;28;20042;-71
2021/09/12 02:37:38;;;;;;;4.18;3.78;;;16.90;79.70;;;;;;4999991;28;20326;-70
2021/09/12 02:40:04;;;;;;;4.78;3.97;;;16.90;79.80;;;;;;4999773;28;20134;-69
2021/09/12 02:42:30;;;;;;;4.07;3.67;;;16.80;79.90;;;;;;4998970;28;20464;-70
2021/09/12 02:44:55;;;;;;;3.60;3.30;;;16.80;80.00;;;;;;4999342;28;20109;-69
2021/09/12 02:47:21;;;;;;;3.28;3.03;;;16.70;80.10;;;;;;4997319;28;20119;-70
2021/09/12 02:49:47;;;;;;;3.90;3.40;;;16.70;80.40;;;;;;4997811;28;20026;-69
2021/09/12 02:52:12;;;;;;;3.60;3.30;;;16.70;80.60;;;;;;4999789;28;20026;-70
2021/09/12 02:54:38;;;;;;;3.75;3.33;;;16.60;80.60;;;;;;4997040;28;20053;-70
2021/09/12 02:57:04;;;;;;;3.22;2.92;;;16.60;80.60;;;;;;4999012;28;20039;-70
2021/09/12 02:59:30;;;;;;;4.32;3.13;;;16.60;80.50;;;;;;4998685;28;20050;-70
2021/09/12 03:01:55;;;;;;;3.35;2.70;;;16.60;80.40;;;;;;4998221;28;20142;-70
2021/09/12 03:04:21;;;;;;;3.40;3.10;;;16.70;80.30;;;;;;4997825;28;20040;-69
2021/09/12 03:06:47;;;;;;;2.95;2.75;;;16.60;80.10;;;;;;4996549;28;20041;-70
2021/09/12 03:09:12;;;;;;;8.25;3.10;;;16.60;80.10;;;;;;4998305;28;20034;-70
2021/09/12 03:11:38;;;;;;;4.03;3.25;;;16.60;80.00;;;;;;4998962;28;20073;-69
2021/09/12 03:14:03;;;;;;;3.58;3.28;;;16.60;79.80;;;;;;4997934;28;20038;-70
2021/09/12 03:16:29;;;;;;;4.60;3.50;;;16.50;79.80;;;;;;4998455;28;20046;-70
2021/09/12 03:18:55;;;;;;;3.10;2.85;;;16.50;79.80;;;;;;4998366;28;20578;-70
2021/09/12 03:21:20;;;;;;;6.55;3.00;;;16.50;79.60;;;;;;4998992;28;20551;-70
2021/09/12 03:23:46;;;;;;;3.78;3.15;;;16.40;79.80;;;;;;4996484;28;20401;-71
2021/09/12 03:26:12;;;;;;;3.47;3.10;;;16.40;79.80;;;;;;4999562;28;20030;-70
2021/09/12 03:28:38;;;;;;;3.30;3.00;;;16.40;79.80;;;;;;4997640;28;20061;-70
2021/09/12 03:31:04;;;;;;;3.42;3.13;;;16.30;79.80;;;;;;4999249;28;20400;-70
2021/09/12 03:33:30;;;;;;;3.28;2.72;;;16.30;79.90;;;;;;4998730;28;20046;-70
2021/09/12 03:35:56;;;;;;;3.03;2.83;;;16.30;80.00;;;;;;5000646;28;20034;-70
2021/09/12 03:38:22;;;;;;;3.00;2.80;;;16.20;80.80;;;;;;5001242;28;20022;-70
2021/09/12 03:40:48;;;;;;;2.80;2.60;;;16.20;80.10;;;;;;5003002;28;20591;-70
2021/09/12 03:43:14;;;;;;;3.13;2.83;;;16.20;80.10;;;;;;5001405;28;20046;-70
2021/09/12 03:45:39;;;;;;;3.17;2.90;;;16.20;80.00;;;;;;5003816;28;20112;-70
2021/09/12 03:48:05;;;;;;;8.10;3.28;;;16.20;80.00;;;;;;5003915;28;20044;-70
2021/09/12 03:50:31;;;;;;;4.55;3.10;;;16.10;80.10;;;;;;5002684;28;20057;-71
2021/09/12 03:52:57;;;;;;;2.72;2.53;;;16.10;80.40;;;;;;5001021;28;20521;-70
2021/09/12 03:55:23;;;;;;;3.03;2.72;;;16.00;80.40;;;;;;5000329;28;20038;-70
2021/09/12 03:57:49;;;;;;;2.65;2.45;;;16.00;80.40;;;;;;5007312;28;20034;-70
2021/09/12 04:00:15;;;;;;;3.95;3.08;;;16.00;80.50;;;;;;5002794;28;20030;-70
2021/09/12 04:02:42;;;;;;;3.47;3.10;;;16.00;80.60;;;;;;5001874;28;20034;-71
2021/09/12 04:05:08;;;;;;;2.85;2.65;;;16.00;80.70;;;;;;5005205;28;20272;-70
2021/09/12 04:07:34;;;;;;;3.13;2.83;;;16.00;80.50;;;;;;5000763;28;20033;-70
2021/09/12 04:09:59;;;;;;;3.10;2.90;;;16.00;81.10;;;;;;5000671;28;20030;-70
2021/09/12 04:12:25;;;;;;;3.00;2.72;;;16.00;80.10;;;;;;5000343;28;20026;-70
2021/09/12 04:14:53;;;;;;;3.03;2.70;;;15.90;80.80;;;;;;5001244;28;20069;-70
2021/09/12 04:17:19;;;;;;;3.30;3.00;;;15.90;80.00;;;;;;5001527;28;20034;-69
2021/09/12 04:19:46;;;;;;;3.55;2.80;;;15.90;80.10;;;;;;5001751;28;20496;-70
2021/09/12 04:22:12;;;;;;;3.67;2.88;;;15.90;80.10;;;;;;5016100;28;20452;-69
2021/09/12 04:24:38;;;;;;;2.92;2.72;;;15.80;80.00;;;;;;4999771;28;20029;-69
2021/09/12 04:27:04;;;;;;;6.82;3.00;;;15.80;79.80;;;;;;4998959;28;20081;-70
2021/09/12 04:29:29;;;;;;;3.05;2.78;;;15.80;79.80;;;;;;5001336;28;20068;-70
2021/09/12 04:31:55;;;;;;;3.08;2.78;;;15.80;80.00;;;;;;5001072;28;20339;-69
2021/09/12 04:34:21;;;;;;;6.00;2.40;;;15.70;80.10;;;;;;5000467;28;20543;-70
2021/09/12 04:36:46;;;;;;;4.88;2.97;;;15.70;80.10;;;;;;5003153;28;20414;-70
2021/09/12 04:39:12;;;;;;;3.03;2.83;;;15.70;80.20;;;;;;5002036;28;20042;-70
2021/09/12 04:41:38;;;;;;;2.90;2.70;;;15.70;80.10;;;;;;5004315;28;20046;-70
2021/09/12 04:44:04;;;;;;;5.00;3.20;;;15.60;80.10;;;;;;4999267;28;20038;-70
2021/09/12 04:46:29;;;;;;;2.90;2.70;;;15.60;80.30;;;;;;5000217;28;20225;-69
2021/09/12 04:48:55;;;;;;;3.30;2.75;;;15.60;80.40;;;;;;5001181;28;20030;-69
2021/09/12 04:51:22;;;;;;;3.33;3.08;;;15.60;80.30;;;;;;5001061;28;20041;-70
2021/09/12 04:53:47;;;;;;;2.78;2.35;;;15.60;80.20;;;;;;5005044;28;20406;-70
2021/09/12 04:56:13;;;;;;;3.30;2.80;;;15.50;80.30;;;;;;4999019;28;20030;-69
2021/09/12 04:58:38;;;;;;;2.90;2.70;;;15.50;80.30;;;;;;4998538;28;20152;-70
2021/09/12 05:01:04;;;;;;;4.53;2.80;;;15.50;81.20;;;;;;5005060;28;20584;-70
2021/09/12 05:03:30;;;;;;;3.17;2.95;;;15.50;80.30;;;;;;4999845;28;20046;-70
2021/09/12 05:05:56;;;;;;;7.43;5.63;;;15.50;80.30;;;;;;4998409;28;20604;-70
2021/09/12 05:08:22;;;;;;;48.85;32.65;;;15.50;80.50;;;;;;5000298;28;20089;-70
2021/09/12 05:10:47;;;;;;;36.72;25.52;;;15.50;80.50;;;;;;4997777;28;20042;-70
2021/09/12 05:13:13;;;;;;;19.10;14.85;;;15.50;80.80;;;;;;5000401;28;20053;-70
2021/09/12 05:15:42;;;;;;;11.70;9.32;;;15.50;80.80;;;;;;4999589;28;20038;-69
2021/09/12 05:18:08;;;;;;;10.02;7.40;;;15.60;81.00;;;;;;5000494;28;20030;-70
2021/09/12 05:20:34;;;;;;;4.25;3.85;;;15.60;81.00;;;;;;5000644;28;20073;-69
2021/09/12 05:22:59;;;;;;;5.13;4.00;;;15.60;81.00;;;;;;4999936;28;20083;-70
2021/09/12 05:25:25;;;;;;;3.42;3.00;;;15.70;81.20;;;;;;5001138;28;20026;-70
2021/09/12 05:27:50;;;;;;;4.38;3.13;;;15.70;81.20;;;;;;5000287;28;20038;-71
2021/09/12 05:30:16;;;;;;;4.35;3.50;;;15.70;81.20;;;;;;5000563;28;20038;-70
2021/09/12 05:32:45;;;;;;;4.07;3.67;;;15.80;81.30;;;;;;4998706;28;20086;-70
2021/09/12 05:35:13;;;;;;;3.60;3.05;;;15.80;81.20;;;;;;5000759;28;20409;-70
2021/09/12 05:37:39;;;;;;;3.95;3.50;;;15.90;81.20;;;;;;5001274;28;20403;-70
2021/09/12 05:40:05;;;;;;;4.70;4.13;;;15.90;81.20;;;;;;5001523;28;20038;-70
2021/09/12 05:42:30;;;;;;;4.13;3.72;;;15.90;81.20;;;;;;5000039;28;20077;-68
2021/09/12 05:44:56;;;;;;;4.55;3.70;;;16.00;81.30;;;;;;5000348;28;20054;-71
2021/09/12 05:47:22;;;;;;;4.22;3.35;;;16.00;81.40;;;;;;4997705;28;20034;-69
2021/09/12 05:49:47;;;;;;;3.15;2.95;;;16.10;81.50;;;;;;4999287;28;20399;-70
2021/09/12 05:52:13;;;;;;;3.70;3.22;;;16.10;81.50;;;;;;4998827;28;20583;-70
2021/09/12 05:54:39;;;;;;;3.72;3.22;;;16.10;81.50;;;;;;4997158;28;20034;-71
2021/09/12 05:57:04;;;;;;;3.45;3.13;;;16.20;81.60;;;;;;4998270;28;20061;-70
2021/09/12 05:59:30;;;;;;;4.13;3.47;;;16.20;81.70;;;;;;4998224;28;20045;-69
2021/09/12 06:01:56;;;;;;;3.50;3.20;;;16.30;81.80;;;;;;4996027;28;20394;-69
2021/09/12 06:04:22;;;;;;;3.17;2.97;;;16.30;81.80;;;;;;4997684;28;20041;-70
2021/09/12 06:06:47;;;;;;;3.70;3.40;;;16.40;81.90;;;;;;4999090;28;20030;-70
2021/09/12 06:09:13;;;;;;;4.60;3.70;;;16.40;81.80;;;;;;4997938;28;20109;-70
2021/09/12 06:11:39;;;;;;;6.03;4.63;;;16.50;81.90;;;;;;5002705;28;20379;-70
2021/09/12 06:14:04;;;;;;;5.43;4.10;;;16.50;81.90;;;;;;4998809;28;20097;-69
2021/09/12 06:16:30;;;;;;;6.43;5.25;;;16.60;81.90;;;;;;4998587;28;20581;-69
2021/09/12 06:18:55;;;;;;;5.15;4.65;;;16.60;81.80;;;;;;4996004;28;20140;-70
2021/09/12 06:21:21;;;;;;;4.88;3.95;;;16.70;81.90;;;;;;4998892;28;20092;-71
2021/09/12 06:23:47;;;;;;;3.72;3.47;;;16.70;81.90;;;;;;4997572;28;20501;-70
2021/09/12 06:26:13;;;;;;;5.05;4.10;;;16.80;81.70;;;;;;4998763;28;20089;-70
2021/09/12 06:28:38;;;;;;;4.32;3.78;;;16.80;81.60;;;;;;4997330;28;20125;-70
2021/09/12 06:31:04;;;;;;;3.58;3.33;;;16.90;81.80;;;;;;4998149;28;20505;-70
2021/09/12 06:33:30;;;;;;;3.95;3.50;;;16.90;81.90;;;;;;5013832;28;20050;-70
2021/09/12 06:35:56;;;;;;;3.53;3.22;;;16.90;81.90;;;;;;4999315;28;20035;-70
2021/09/12 06:38:21;;;;;;;4.35;3.50;;;17.00;81.90;;;;;;4999212;28;20038;-70
2021/09/12 06:40:47;;;;;;;3.83;3.53;;;17.00;81.70;;;;;;4999061;28;20104;-70
2021/09/12 06:43:12;;;;;;;3.83;3.30;;;17.00;81.80;;;;;;4999018;28;20033;-69
2021/09/12 06:45:39;;;;;;;5.18;3.75;;;17.00;81.90;;;;;;4999457;28;20034;-70
2021/09/12 06:48:04;;;;;;;4.10;3.72;;;17.00;81.80;;;;;;4998541;28;20037;-70
2021/09/12 06:50:30;;;;;;;4.18;3.78;;;17.10;81.90;;;;;;4998639;28;20037;-70
2021/09/12 06:52:56;;;;;;;4.10;3.70;;;17.10;82.00;;;;;;4997921;28;20866;-70
2021/09/12 06:55:22;;;;;;;7.00;4.05;;;17.10;81.70;;;;;;5001138;28;20030;-71
2021/09/12 06:57:47;;;;;;;4.25;3.67;;;17.20;81.90;;;;;;4999178;28;20037;-71
2021/09/12 07:00:13;;;;;;;4.85;4.10;;;17.20;81.50;;;;;;4998786;28;20452;-69
2021/09/12 07:02:39;;;;;;;3.88;3.58;;;17.20;81.10;;;;;;4999416;28;20527;-70
2021/09/12 07:05:07;;;;;;;4.00;3.50;;;17.20;80.90;;;;;;4999404;28;20173;-69
2021/09/12 07:07:33;;;;;;;4.13;3.72;;;17.30;81.00;;;;;;4997409;28;20444;-70
2021/09/12 07:09:59;;;;;;;4.45;3.70;;;17.30;81.10;;;;;;4999012;28;20062;-69
2021/09/12 07:12:24;;;;;;;4.47;4.03;;;17.30;81.00;;;;;;5001405;28;20057;-70
2021/09/12 07:14:50;;;;;;;3.80;3.40;;;17.40;81.00;;;;;;5003445;28;20095;-71
2021/09/12 07:17:16;;;;;;;4.38;3.97;;;17.40;81.00;;;;;;5003592;28;20116;-70
2021/09/12 07:19:42;;;;;;;4.43;4.03;;;17.50;81.30;;;;;;5000425;28;20378;-68
2021/09/12 07:22:07;;;;;;;5.18;4.10;;;17.50;81.10;;;;;;5002782;28;20034;-70
2021/09/12 07:24:34;;;;;;;4.28;3.90;;;17.50;81.20;;;;;;4999195;28;20045;-70
2021/09/12 07:27:00;;;;;;;4.32;3.92;;;17.50;81.10;;;;;;5002875;28;20065;-70
2021/09/12 07:29:26;;;;;;;4.30;3.90;;;17.60;81.00;;;;;;5003733;28;20054;-69
2021/09/12 07:31:52;;;;;;;6.15;4.30;;;17.70;81.00;;;;;;5002256;28;20564;-67
2021/09/12 07:34:18;;;;;;;5.03;4.28;;;17.70;81.00;;;;;;5001770;28;20034;-70
2021/09/12 07:36:44;;;;;;;4.72;4.20;;;17.70;81.00;;;;;;5001760;28;20042;-68
2021/09/12 07:39:10;;;;;;;4.57;4.22;;;17.80;81.30;;;;;;5001220;28;20034;-70
2021/09/12 07:41:35;;;;;;;4.75;4.28;;;17.80;81.30;;;;;;5000275;28;20104;-71
2021/09/12 07:44:01;;;;;;;5.10;4.57;;;17.90;81.30;;;;;;5002158;28;20085;-69
2021/09/12 07:46:27;;;;;;;5.25;4.75;;;17.90;81.00;;;;;;5017797;28;20034;-68
2021/09/12 07:48:52;;;;;;;4.78;4.35;;;18.00;81.20;;;;;;5004409;28;20460;-68
2021/09/12 07:51:18;;;;;;;6.35;4.45;;;18.00;81.10;;;;;;5002627;28;20065;-68
2021/09/12 07:53:43;;;;;;;5.53;5.03;;;18.10;80.90;;;;;;5002806;28;20057;-68
2021/09/12 07:56:09;;;;;;;6.10;4.38;;;18.20;80.60;;;;;;5002112;28;20091;-68
2021/09/12 07:58:35;;;;;;;4.88;4.43;;;18.20;80.40;;;;;;5000278;28;20057;-68
2021/09/12 08:01:01;;;;;;;4.50;4.10;;;18.30;80.20;;;;;;5001597;28;20475;-68
2021/09/12 08:03:26;;;;;;;4.88;4.40;;;18.40;80.10;;;;;;5001538;28;20597;-69
2021/09/12 08:05:52;;;;;;;5.00;4.40;;;18.40;80.00;;;;;;5001199;28;20038;-68
2021/09/12 08:08:19;;;;;;;5.22;4.50;;;18.50;79.80;;;;;;5001619;28;20038;-67
2021/09/12 08:10:45;;;;;;;4.57;4.18;;;18.60;79.80;;;;;;4999595;28;20548;-68
2021/09/12 08:13:11;;;;;;;4.55;4.15;;;18.60;79.30;;;;;;4999646;28;20042;-68
2021/09/12 08:15:38;;;;;;;5.80;4.50;;;18.70;79.40;;;;;;5001319;28;20034;-68
2021/09/12 08:18:04;;;;;;;5.13;4.63;;;18.80;79.40;;;;;;5001969;28;20128;-68
2021/09/12 08:20:29;;;;;;;5.30;4.70;;;18.90;79.30;;;;;;5000901;28;20366;-67
2021/09/12 08:22:55;;;;;;;4.43;4.03;;;19.00;79.10;;;;;;5000745;28;20108;-68
2021/09/12 08:25:20;;;;;;;4.30;3.88;;;19.00;78.90;;;;;;5001546;28;20053;-68
2021/09/12 08:27:46;;;;;;;3.83;3.53;;;19.10;78.90;;;;;;5001845;28;20080;-68
2021/09/12 08:30:12;;;;;;;3.50;3.20;;;19.20;78.70;;;;;;5001363;28;20493;-68
2021/09/12 08:32:37;;;;;;;3.80;3.50;;;19.20;78.60;;;;;;5000357;28;20033;-69
2021/09/12 08:35:03;;;;;;;3.72;3.42;;;19.30;78.20;;;;;;4999412;28;20126;-68
2021/09/12 08:37:29;;;;;;;3.50;3.25;;;19.40;77.90;;;;;;5001894;28;20058;-68
2021/09/12 08:39:55;;;;;;;3.45;3.13;;;19.40;77.80;;;;;;5000260;28;20207;-68
2021/09/12 08:42:22;;;;;;;3.50;3.30;;;19.50;77.50;;;;;;5000548;28;20031;-68
2021/09/12 08:44:50;;;;;;;3.75;3.45;;;19.60;76.80;;;;;;4999811;28;20040;-68
2021/09/12 08:47:16;;;;;;;3.55;3.10;;;19.70;76.50;;;;;;5000579;28;20128;-68
2021/09/12 08:49:43;;;;;;;3.63;3.33;;;19.80;76.10;;;;;;5002427;28;20030;-68
2021/09/12 08:52:10;;;;;;;4.38;3.20;;;19.80;76.10;;;;;;5000781;28;20104;-68
2021/09/12 08:54:36;;;;;;;4.25;3.33;;;19.90;75.70;;;;;;4999450;28;20111;-68
2021/09/12 08:57:02;;;;;;;2.15;2.05;;;20.00;75.60;;;;;;5001514;28;20504;-68
2021/09/12 08:59:30;;;;;;;3.35;2.10;;;20.00;74.90;;;;;;5001564;28;20053;-68
2021/09/12 09:01:59;;;;;;;3.00;2.28;;;20.10;73.90;;;;;;4998433;28;20049;-68
2021/09/12 09:04:29;;;;;;;3.28;2.58;;;20.20;73.90;;;;;;4999762;28;20511;-69
2021/09/12 09:07:04;;;;;;;2.58;2.38;;;20.30;73.50;;;;;;5000005;28;20030;-68
2021/09/12 09:09:46;;;;;;;3.30;3.00;;;20.40;72.30;;;;;;4996882;28;20030;-68
2021/09/12 09:12:26;;;;;;;2.97;2.78;;;20.40;71.60;;;;;;4996639;28;20033;-68
2021/09/12 09:15:07;;;;;;;2.90;2.70;;;20.50;71.60;;;;;;4999023;28;20048;-69
2021/09/12 09:17:40;;;;;;;3.22;2.50;;;20.50;71.60;;;;;;4999520;28;20038;-68
2021/09/12 09:20:08;;;;;;;3.35;3.05;;;20.60;71.60;;;;;;5000161;28;20062;-69
2021/09/12 09:22:40;;;;;;;3.13;2.72;;;20.60;71.90;;;;;;4997992;28;20594;-68
2021/09/12 09:25:20;;;;;;;2.67;2.47;;;20.70;71.60;;;;;;4999865;28;20866;-68
2021/09/12 09:28:02;;;;;;;2.80;2.60;;;20.80;70.60;;;;;;5000230;28;20041;-67
2021/09/12 09:31:20;;;;;;;2.50;2.30;;;20.80;70.20;;;;;;4999972;28;20628;-68
2021/09/12 09:33:41;;;;;;;3.03;2.72;;;20.90;69.60;;;;;;4998190;28;20085;-69
2021/09/12 09:36:08;;;;;;;2.78;2.53;;;21.00;70.70;;;;;;5000296;28;20035;-68
2021/09/12 09:38:40;;;;;;;3.13;2.90;;;21.00;70.20;;;;;;5000109;28;20034;-68
2021/09/12 09:41:07;;;;;;;2.88;2.58;;;21.00;67.80;;;;;;5015731;28;20030;-68
2021/09/12 09:43:45;;;;;;;3.25;2.90;;;21.10;68.80;;;;;;4997472;28;20038;-68
2021/09/12 09:46:29;;;;;;;3.15;2.85;;;21.10;67.30;;;;;;4999703;28;20050;-68
2021/09/12 09:48:56;;;;;;;3.80;3.40;;;21.10;68.80;;;;;;5000865;28;20039;-68
2021/09/12 09:51:22;;;;;;;3.97;3.55;;;21.20;69.50;;;;;;4999513;28;20121;-68
2021/09/12 09:53:49;;;;;;;4.05;3.03;;;21.20;69.50;;;;;;4999914;28;20038;-69
2021/09/12 09:56:16;;;;;;;3.30;3.00;;;21.30;70.20;;;;;;4999517;28;20041;-68
2021/09/12 09:58:43;;;;;;;2.80;2.50;;;21.30;69.00;;;;;;4995753;28;20069;-68
2021/09/12 10:01:09;;;;;;;3.60;3.30;;;21.40;69.00;;;;;;4999684;28;20041;-69
2021/09/12 10:03:36;;;;;;;5.60;3.65;;;21.40;68.80;;;;;;4998888;28;20041;-68
2021/09/12 10:06:02;;;;;;;3.90;3.60;;;21.50;68.70;;;;;;4997870;28;20117;-69
2021/09/12 10:08:28;;;;;;;4.32;4.00;;;21.50;68.60;;;;;;4999051;28;20460;-68
2021/09/12 10:10:54;;;;;;;4.20;3.80;;;21.60;68.40;;;;;;5003813;28;20100;-68
2021/09/12 10:13:23;;;;;;;4.85;3.58;;;21.70;68.20;;;;;;4998600;28;20270;-68
2021/09/12 10:15:53;;;;;;;3.92;3.63;;;21.70;68.40;;;;;;4999567;28;20553;-67
2021/09/12 10:18:28;;;;;;;3.72;3.42;;;21.70;68.60;;;;;;4999569;28;20044;-69
2021/09/12 10:20:54;;;;;;;3.70;3.33;;;21.80;68.30;;;;;;4998926;28;20057;-68
2021/09/12 10:23:26;;;;;;;4.65;3.67;;;21.90;68.80;;;;;;4994855;28;20046;-68
2021/09/12 10:26:02;;;;;;;4.30;4.00;;;22.00;68.80;;;;;;5000512;28;20125;-68
2021/09/12 10:28:27;;;;;;;3.03;2.83;;;22.10;67.30;;;;;;4999616;28;20539;-68
2021/09/12 10:30:53;;;;;;;4.00;3.70;;;22.20;67.70;;;;;;5000652;28;20034;-70
2021/09/12 10:33:25;;;;;;;3.58;3.13;;;22.20;66.40;;;;;;5000104;28;20568;-68
2021/09/12 10:36:00;;;;;;;3.10;2.80;;;22.30;66.00;;;;;;4999998;28;20097;-68
2021/09/12 10:38:33;;;;;;;3.17;2.83;;;22.30;65.70;;;;;;4997470;28;20153;-68
2021/09/12 10:41:02;;;;;;;3.20;2.90;;;22.30;65.50;;;;;;4999420;28;20088;-68
2021/09/12 10:43:27;;;;;;;5.13;3.67;;;22.40;64.30;;;;;;5000074;28;20031;-72
2021/09/12 10:46:04;;;;;;;3.25;2.95;;;22.30;64.10;;;;;;5002267;28;20072;-69
2021/09/12 10:48:36;;;;;;;3.47;3.17;;;22.30;64.30;;;;;;5001565;28;20064;-69
2021/09/12 10:51:15;;;;;;;2.60;2.40;;;22.30;64.80;;;;;;5003057;28;20034;-68
2021/09/12 10:53:46;;;;;;;3.67;3.38;;;22.40;65.20;;;;;;5004749;28;20065;-69
2021/09/12 10:56:18;;;;;;;3.85;3.17;;;22.40;64.00;;;;;;4999701;28;20129;-68
2021/09/12 10:58:46;;;;;;;3.35;3.05;;;22.40;63.90;;;;;;5001703;28;20042;-68
2021/09/12 11:01:34;;;;;;;3.70;3.35;;;22.30;65.00;;;;;;5001700;28;20554;-70
2021/09/12 11:04:01;;;;;;;3.22;2.63;;;22.30;64.40;;;;;;5001107;28;20054;-68
2021/09/12 11:06:32;;;;;;;3.35;3.08;;;22.40;65.20;;;;;;5003168;28;20030;-68
2021/09/12 11:08:59;;;;;;;3.70;3.40;;;22.40;64.60;;;;;;5002573;28;20046;-68
2021/09/12 11:11:25;;;;;;;3.50;3.20;;;22.40;64.70;;;;;;4999408;28;20046;-68
2021/09/12 11:13:53;;;;;;;3.97;3.30;;;22.40;64.80;;;;;;5001435;28;20616;-68
2021/09/12 11:16:21;;;;;;;3.40;3.13;;;22.50;64.10;;;;;;5003379;28;20137;-68
2021/09/12 11:18:50;;;;;;;2.58;2.38;;;22.40;63.80;;;;;;5002233;28;20034;-68
2021/09/12 11:21:33;;;;;;;3.95;2.83;;;22.50;64.40;;;;;;5003387;28;20058;-69
2021/09/12 11:24:07;;;;;;;2.85;2.65;;;22.50;62.90;;;;;;5000009;28;20452;-70
2021/09/12 11:27:01;;;;;;;3.20;2.63;;;22.50;64.30;;;;;;5000102;28;20040;-68
2021/09/12 11:29:31;;;;;;;4.93;2.75;;;22.50;63.90;;;;;;5002732;28;20030;-68
2021/09/12 11:32:04;;;;;;;3.05;2.33;;;22.50;64.00;;;;;;5002585;28;20149;-67
2021/09/12 11:34:31;;;;;;;2.90;2.70;;;22.50;64.50;;;;;;5002505;28;20508;-69
2021/09/12 11:37:02;;;;;;;2.92;2.65;;;22.60;64.40;;;;;;5003099;28;20038;-68
2021/09/12 11:39:27;;;;;;;3.13;2.92;;;22.60;63.40;;;;;;5001814;28;20034;-71
2021/09/12 11:41:56;;;;;;;2.88;2.67;;;22.60;63.40;;;;;;5002249;28;20522;-69
2021/09/12 11:44:32;;;;;;;2.10;2.00;;;22.60;63.40;;;;;;5016949;28;20254;-70
2021/09/12 11:46:58;;;;;;;2.50;2.30;;;22.60;62.90;;;;;;5003269;28;20674;-68
2021/09/12 11:49:24;;;;;;;2.30;2.10;;;22.60;63.30;;;;;;5002505;28;20079;-69
2021/09/12 11:51:50;;;;;;;2.10;1.90;;;22.60;63.40;;;;;;5003602;28;20023;-68
2021/09/12 11:54:18;;;;;;;2.88;2.67;;;22.70;63.30;;;;;;5000854;28;20048;-68
2021/09/12 11:57:00;;;;;;;2.60;2.40;;;22.70;62.20;;;;;;5000741;28;20084;-69
2021/09/12 11:59:29;;;;;;;2.30;2.10;;;22.60;61.80;;;;;;5000635;28;20030;-69
2021/09/12 12:01:56;;;;;;;2.30;1.90;;;22.60;62.60;;;;;;5000894;28;20076;-68
2021/09/12 12:04:22;;;;;;;2.17;1.98;;;22.70;62.80;;;;;;5001105;28;20104;-69
2021/09/12 12:06:49;;;;;;;2.30;2.10;;;22.70;63.10;;;;;;5001067;28;20026;-69
2021/09/12 12:09:25;;;;;;;2.17;1.95;;;22.80;62.80;;;;;;5001405;28;20125;-69
2021/09/12 12:11:50;;;;;;;1.70;1.60;;;22.80;62.50;;;;;;4999966;28;21445;-69
2021/09/12 12:14:24;;;;;;;2.05;1.65;;;22.90;62.50;;;;;;5001119;28;20566;-70
2021/09/12 12:16:53;;;;;;;2.03;1.60;;;23.00;62.30;;;;;;5001079;28;20033;-69
2021/09/12 12:19:19;;;;;;;1.80;1.70;;;23.00;62.20;;;;;;5001370;28;20274;-69
2021/09/12 12:21:50;;;;;;;2.20;1.92;;;23.10;62.40;;;;;;5001745;28;20505;-67
2021/09/12 12:24:21;;;;;;;1.70;1.60;;;23.20;61.00;;;;;;5001844;28;20038;-70
2021/09/12 12:26:52;;;;;;;1.92;1.80;;;23.30;61.80;;;;;;5000855;28;20056;-69
2021/09/12 12:29:27;;;;;;;2.20;2.00;;;23.40;61.60;;;;;;5000378;28;20057;-70
2021/09/12 12:31:54;;;;;;;2.05;1.30;;;23.50;62.00;;;;;;4999303;28;20041;-68
2021/09/12 12:34:40;;;;;;;2.15;2.05;;;23.60;61.70;;;;;;5002097;28;20390;-69
2021/09/12 12:37:08;;;;;;;1.92;1.83;;;23.60;60.10;;;;;;5001245;28;20422;-69
2021/09/12 12:39:34;;;;;;;1.70;1.60;;;23.70;60.40;;;;;;5002663;28;20045;-69
2021/09/12 12:42:00;;;;;;;1.75;1.38;;;23.80;60.40;;;;;;5001308;28;20034;-69
2021/09/12 12:44:26;;;;;;;2.20;1.30;;;23.80;60.30;;;;;;5000887;28;20100;-69
2021/09/12 12:46:54;;;;;;;1.58;1.48;;;23.90;60.20;;;;;;4999388;28;20087;-69